createdAt,value
2019-03-24T22:04:50.568Z,102486.52
2019-03-24T22:05:50.515Z,102484.97
2019-03-24T22:06:52.542Z,102485.25
2019-03-24T22:07:52.917Z,102485.06
2019-03-24T22:08:53.430Z,102484.97
2019-03-24T22:09:53.703Z,102484.64
2019-03-24T22:10:54.613Z,102484.89
2019-03-24T22:11:54.855Z,102484.45
2019-03-24T22:13:11.796Z,102485.05
2019-03-24T22:13:54.988Z,102484.97
2019-03-24T22:14:56.526Z,102485.19
2019-03-24T22:15:55.573Z,102485.03
2019-03-24T22:16:56.757Z,102484.95
2019-03-24T22:17:57.016Z,102485.09
2019-03-24T22:18:57.358Z,102485.19
2019-03-24T22:19:57.646Z,102485.17
2019-03-24T22:20:57.964Z,102484.73
2019-03-24T22:21:59.008Z,102484.91
2019-03-24T22:22:59.171Z,102484.97
2019-03-24T22:23:59.275Z,102484.89
2019-03-24T22:25:00.330Z,102484.72
2019-03-24T22:25:59.775Z,102484.88
2019-03-24T22:27:00.957Z,102484.53
2019-03-24T22:28:03.529Z,102484.52
2019-03-24T22:29:00.328Z,102485.03
2019-03-24T22:30:01.664Z,102485.25
2019-03-24T22:31:02.568Z,102485.94
2019-03-24T22:32:04.440Z,102486.36
2019-03-24T22:33:02.046Z,102486.84
2019-03-24T22:34:02.701Z,102487.41
2019-03-24T22:35:04.602Z,102487.85
2019-03-24T22:36:08.029Z,102488.16
2019-03-24T22:37:15.442Z,102488.99
2019-03-24T22:38:06.488Z,102488.59
2019-03-24T22:39:07.594Z,102488.41
2019-03-24T22:40:07.966Z,102487.97
2019-03-24T22:41:08.329Z,102487.96
2019-03-24T22:42:09.289Z,102487.38
2019-03-24T22:43:09.528Z,102487.20
2019-03-24T22:44:09.047Z,102486.77
2019-03-24T22:45:10.589Z,102486.59
2019-03-24T22:46:10.537Z,102486.15
2019-03-24T22:47:12.385Z,102485.97
2019-03-24T22:48:12.564Z,102485.23
2019-03-24T22:49:13.485Z,102485.32
2019-03-24T22:50:14.377Z,102485.14
2019-03-24T22:51:14.406Z,102485.36
2019-03-24T22:52:14.721Z,102485.34
2019-03-24T22:53:15.667Z,102485.69
2019-03-24T22:54:15.745Z,102485.52
2019-03-24T22:55:16.694Z,102485.91
2019-03-24T22:56:15.699Z,102485.90
2019-03-24T22:57:16.779Z,102485.80
2019-03-24T22:58:17.484Z,102485.53
2019-03-24T22:59:17.122Z,102485.27
2019-03-24T22:59:25.742Z,102484.55
2019-03-24T23:00:25.839Z,102480.36
2019-03-24T23:01:26.041Z,102480.53
2019-03-24T23:02:26.606Z,102480.53
2019-03-24T23:03:27.740Z,102480.25
2019-03-24T23:04:30.365Z,102480.09
2019-03-24T23:05:29.514Z,102479.92
2019-03-24T23:06:27.510Z,102479.92
2019-03-24T23:07:28.772Z,102480.36
2019-03-24T23:08:29.677Z,102479.77
2019-03-24T23:09:28.958Z,102479.67
2019-03-24T23:10:30.331Z,102479.34
2019-03-24T23:11:30.361Z,102478.98
2019-03-24T23:12:30.480Z,102478.33
2019-03-24T23:13:30.660Z,102477.47
2019-03-24T23:14:30.761Z,102477.24
2019-03-24T23:15:31.143Z,102476.63
2019-03-24T23:16:31.295Z,102474.88
2019-03-24T23:17:31.477Z,102474.13
2019-03-24T23:18:32.253Z,102473.17
2019-03-24T23:19:32.549Z,102473.00
2019-03-24T23:20:32.576Z,102471.92
2019-03-24T23:21:33.140Z,102470.91
2019-03-24T23:22:33.342Z,102469.47
2019-03-24T23:23:34.278Z,102467.95
2019-03-24T23:24:35.199Z,102467.03
2019-03-24T23:25:35.179Z,102466.03
2019-03-24T23:26:36.047Z,102464.84
2019-03-24T23:27:36.002Z,102463.83
2019-03-24T23:28:37.301Z,102463.34
2019-03-24T23:29:37.879Z,102462.81
2019-03-24T23:30:38.037Z,102462.23
2019-03-24T23:31:38.605Z,102462.08
2019-03-24T23:32:39.350Z,102461.63
2019-03-24T23:33:39.377Z,102461.11
2019-03-24T23:34:40.295Z,102461.36
2019-03-24T23:35:40.447Z,102461.27
2019-03-24T23:36:41.271Z,102461.19
2019-03-24T23:37:42.239Z,102460.58
2019-03-24T23:38:44.120Z,102460.06
2019-03-24T23:39:42.842Z,102459.16
2019-03-24T23:40:43.054Z,102457.71
2019-03-24T23:41:44.978Z,102457.71
2019-03-24T23:42:45.461Z,102457.17
2019-03-24T23:43:45.479Z,102456.23
2019-03-24T23:44:45.539Z,102455.82
2019-03-24T23:45:45.582Z,102455.14
2019-03-24T23:46:46.533Z,102454.55
2019-03-24T23:47:46.539Z,102453.61
2019-03-24T23:47:55.060Z,102444.42
2019-03-24T23:48:56.620Z,102442.05
2019-03-24T23:49:56.627Z,102442.05
2019-03-24T23:50:57.605Z,102442.64
2019-03-24T23:51:58.552Z,102442.64
2019-03-24T23:52:58.535Z,102443.47
2019-03-24T23:54:00.376Z,102442.97
2019-03-24T23:55:00.424Z,102443.21
2019-03-24T23:56:01.323Z,102443.15
2019-03-24T23:57:02.257Z,102442.81
2019-03-24T23:58:02.495Z,102442.55
2019-03-24T23:59:02.821Z,102441.36
